createdAt,value
2023-07-25T00:00:50.283Z,99156.88
2023-07-25T00:03:27.197Z,99151.04
2023-07-25T00:05:55.266Z,99145.65
2023-07-25T00:08:23.450Z,99142.70
2023-07-25T00:10:51.591Z,99137.65
2023-07-25T00:13:20.747Z,99130.31
2023-07-25T00:15:48.900Z,99135.63
2023-07-25T00:18:17.175Z,99127.50
2023-07-25T00:20:45.258Z,99114.18
2023-07-25T00:23:13.432Z,99114.21
2023-07-25T00:25:41.637Z,99109.48
2023-07-25T00:28:09.764Z,99108.40
2023-07-25T00:30:37.941Z,99108.40
2023-07-25T00:33:06.703Z,99107.07
2023-07-25T00:35:34.940Z,99110.48
2023-07-25T00:38:06.038Z,99115.70
2023-07-25T00:40:39.007Z,99107.65
2023-07-25T00:43:07.169Z,99096.88
2023-07-25T00:45:35.471Z,99101.55
2023-07-25T00:48:04.571Z,99102.70
2023-07-25T00:50:32.939Z,99103.62
2023-07-25T00:53:02.838Z,99105.91
2023-07-25T00:55:31.210Z,99105.60
2023-07-25T00:57:59.502Z,99108.20
2023-07-25T01:00:27.850Z,99113.11
2023-07-25T01:02:56.173Z,99121.64
2023-07-25T01:05:25.908Z,99136.95
2023-07-25T01:07:54.137Z,99144.73
2023-07-25T01:10:22.223Z,99138.42
2023-07-25T01:12:50.454Z,99136.11
2023-07-25T01:15:18.685Z,99138.50
2023-07-25T01:17:46.881Z,99134.74
2023-07-25T01:20:15.596Z,99131.17
2023-07-25T01:22:46.240Z,99132.48
2023-07-25T01:25:15.201Z,99131.63
2023-07-25T01:27:43.491Z,99127.19
2023-07-25T01:30:11.869Z,99126.13
2023-07-25T01:32:40.064Z,99121.37
2023-07-25T01:35:08.695Z,99120.67
2023-07-25T01:37:36.903Z,99125.63
2023-07-25T01:40:05.381Z,99132.51
2023-07-25T01:42:33.597Z,99137.11
2023-07-25T01:45:01.790Z,99140.20
2023-07-25T01:47:31.640Z,99140.60
2023-07-25T01:49:59.848Z,99140.20
2023-07-25T01:52:27.992Z,99141.31
2023-07-25T01:54:56.130Z,99148.42
2023-07-25T01:57:24.308Z,99152.05
2023-07-25T01:59:53.058Z,99153.91
2023-07-25T02:02:21.351Z,99165.97
2023-07-25T02:04:49.631Z,99171.71
2023-07-25T02:07:17.703Z,99165.60
2023-07-25T02:09:45.832Z,99159.52
2023-07-25T02:12:13.913Z,99158.03
2023-07-25T02:14:42.000Z,99160.08
2023-07-25T02:17:10.291Z,99154.58
2023-07-25T02:19:39.461Z,99157.91
2023-07-25T02:22:07.787Z,99158.56
2023-07-25T02:24:36.931Z,99160.13
2023-07-25T02:27:05.371Z,99167.17
2023-07-25T02:29:33.808Z,99177.08
2023-07-25T02:32:01.873Z,99178.57
2023-07-25T02:34:29.981Z,99177.61
2023-07-25T02:36:58.197Z,99180.04
2023-07-25T02:39:26.268Z,99176.81
2023-07-25T02:41:54.445Z,99175.98
2023-07-25T02:44:22.592Z,99181.98
2023-07-25T02:46:50.813Z,99190.82
2023-07-25T02:49:18.961Z,99192.39
2023-07-25T02:51:47.104Z,99193.19
2023-07-25T02:54:15.193Z,99196.30
2023-07-25T02:56:43.281Z,99197.02
2023-07-25T02:59:11.391Z,99199.34
2023-07-25T03:01:39.645Z,99202.83
2023-07-25T03:04:07.870Z,99204.33
2023-07-25T03:06:35.968Z,99211.86
2023-07-25T03:09:04.692Z,99207.80
2023-07-25T03:11:33.042Z,99198.51
2023-07-25T03:14:01.600Z,99199.98
2023-07-25T03:16:30.330Z,99196.27
2023-07-25T03:18:58.509Z,99192.80
2023-07-25T03:21:26.721Z,99196.80
2023-07-25T03:23:54.930Z,99191.19
2023-07-25T03:26:23.396Z,99191.05
2023-07-25T03:28:51.549Z,99194.41
2023-07-25T03:31:19.688Z,99189.77
2023-07-25T03:33:47.977Z,99187.16
2023-07-25T03:36:16.066Z,99188.59
2023-07-25T03:38:44.247Z,99191.45
2023-07-25T03:41:12.427Z,99187.30
2023-07-25T03:43:40.479Z,99185.30
2023-07-25T03:46:08.901Z,99189.51
2023-07-25T03:48:37.092Z,99187.70
2023-07-25T03:51:05.220Z,99189.99
2023-07-25T03:53:33.460Z,99196.19
2023-07-25T03:56:01.830Z,99196.56
2023-07-25T03:58:30.025Z,99194.03
2023-07-25T04:00:58.146Z,99204.58
2023-07-25T04:03:27.700Z,99214.52
2023-07-25T04:05:56.346Z,99203.77
2023-07-25T04:08:24.634Z,99205.27
2023-07-25T04:10:52.744Z,99207.05
2023-07-25T04:13:20.805Z,99209.06
2023-07-25T04:15:49.165Z,99216.48
2023-07-25T04:18:17.636Z,99220.54
2023-07-25T04:20:45.785Z,99219.05
2023-07-25T04:23:13.912Z,99228.36
2023-07-25T04:25:41.997Z,99232.02
2023-07-25T04:28:10.990Z,99219.50
2023-07-25T04:30:39.195Z,99236.14
2023-07-25T04:33:07.911Z,99235.80
2023-07-25T04:35:36.316Z,99236.73
2023-07-25T04:38:04.426Z,99229.56
2023-07-25T04:40:32.782Z,99227.89
2023-07-25T04:43:00.909Z,99224.36
2023-07-25T04:45:29.100Z,99217.63
2023-07-25T04:47:57.295Z,99214.84
2023-07-25T04:50:25.420Z,99213.48
2023-07-25T04:52:54.355Z,99214.45
2023-07-25T04:55:22.457Z,99208.84
2023-07-25T04:57:51.730Z,99207.96
2023-07-25T05:00:19.970Z,99209.38
2023-07-25T05:02:48.209Z,99214.28
2023-07-25T05:05:16.517Z,99217.49
2023-07-25T05:07:44.629Z,99223.43
2023-07-25T05:10:12.770Z,99216.70
2023-07-25T05:12:40.903Z,99217.19
2023-07-25T05:15:09.266Z,99239.77
2023-07-25T05:17:37.498Z,99224.09
2023-07-25T05:20:06.638Z,99218.95
2023-07-25T05:22:38.049Z,99216.42
2023-07-25T05:25:06.567Z,99213.39
2023-07-25T05:27:34.932Z,99214.95
2023-07-25T05:30:04.110Z,99218.98
2023-07-25T05:32:32.982Z,99223.89
2023-07-25T05:35:05.947Z,99222.88
2023-07-25T05:37:39.305Z,99227.63
2023-07-25T05:40:08.040Z,99227.75
2023-07-25T05:42:36.489Z,99230.13
2023-07-25T05:45:07.892Z,99222.04
2023-07-25T05:47:36.059Z,99237.54
2023-07-25T05:50:04.579Z,99239.55
2023-07-25T05:52:32.846Z,99243.89
2023-07-25T05:55:00.921Z,99245.03
2023-07-25T05:57:29.206Z,99252.46
2023-07-25T05:59:57.319Z,99232.52
2023-07-25T06:02:25.562Z,99247.02
2023-07-25T06:04:53.756Z,99236.39
2023-07-25T06:07:23.838Z,99244.02
2023-07-25T06:09:52.340Z,99246.43
2023-07-25T06:12:21.025Z,99253.11
2023-07-25T06:14:49.441Z,99254.89
2023-07-25T06:17:20.656Z,99255.88
2023-07-25T06:19:49.380Z,99256.00
2023-07-25T06:22:17.823Z,99254.89
2023-07-25T06:24:47.670Z,99257.91
2023-07-25T06:27:16.191Z,99256.66
2023-07-25T06:29:44.708Z,99271.41
2023-07-25T06:32:13.061Z,99263.97
2023-07-25T06:34:41.888Z,99259.57
2023-07-25T06:37:13.043Z,99252.48
2023-07-25T06:39:41.179Z,99268.77
2023-07-25T06:42:09.309Z,99276.08
2023-07-25T06:44:38.101Z,99271.24
2023-07-25T06:47:06.686Z,99272.34
2023-07-25T06:49:34.748Z,99261.23
2023-07-25T06:52:02.942Z,99272.19
2023-07-25T06:54:31.255Z,99263.36
2023-07-25T06:56:59.662Z,99258.84
2023-07-25T06:59:30.974Z,99281.55
2023-07-25T07:01:59.249Z,99298.39
2023-07-25T07:04:27.443Z,99293.06
2023-07-25T07:06:55.690Z,99287.68
2023-07-25T07:09:23.800Z,99284.75
2023-07-25T07:11:51.944Z,99278.27
2023-07-25T07:14:20.061Z,99299.98
2023-07-25T07:16:48.309Z,99297.18
2023-07-25T07:19:16.647Z,99314.23
2023-07-25T07:21:44.736Z,99311.34
2023-07-25T07:24:13.223Z,99313.97
2023-07-25T07:26:41.413Z,99311.70
2023-07-25T07:29:12.183Z,99325.08
2023-07-25T07:31:40.461Z,99327.91
2023-07-25T07:34:17.560Z,99332.80
2023-07-25T07:36:46.363Z,99340.48
2023-07-25T07:39:14.849Z,99337.84
2023-07-25T07:41:43.039Z,99335.83
2023-07-25T07:44:11.110Z,99335.48
2023-07-25T07:46:39.283Z,99333.15
2023-07-25T07:49:07.465Z,99334.61
2023-07-25T07:51:35.570Z,99335.95
2023-07-25T07:54:03.723Z,99354.05
2023-07-25T07:56:31.992Z,99356.86
2023-07-25T07:59:00.128Z,99355.26
2023-07-25T08:01:28.988Z,99361.20
2023-07-25T08:03:57.326Z,99360.61
2023-07-25T08:06:25.627Z,99353.06
2023-07-25T08:08:53.740Z,99356.89
2023-07-25T08:11:21.851Z,99368.29
2023-07-25T08:13:50.066Z,99379.79
2023-07-25T08:16:18.185Z,99391.43
2023-07-25T08:18:46.305Z,99393.25
2023-07-25T08:21:14.481Z,99392.65
2023-07-25T08:23:42.600Z,99391.14
2023-07-25T08:26:10.914Z,99398.30
2023-07-25T08:28:39.092Z,99397.01
2023-07-25T08:31:07.763Z,99399.94
2023-07-25T08:33:36.095Z,99396.73
2023-07-25T08:36:07.318Z,99400.89
2023-07-25T08:38:35.617Z,99397.08
2023-07-25T08:41:12.168Z,99392.91
2023-07-25T08:43:41.701Z,99393.89
2023-07-25T08:46:11.377Z,99379.34
2023-07-25T08:48:43.090Z,99386.21
2023-07-25T08:51:24.034Z,99388.04
2023-07-25T08:54:29.317Z,99383.25
2023-07-25T08:56:57.666Z,99375.34
2023-07-25T08:59:26.856Z,99381.39
2023-07-25T09:01:55.950Z,99386.23
2023-07-25T09:04:26.765Z,99387.23
2023-07-25T09:06:55.201Z,99379.73
2023-07-25T09:09:24.836Z,99374.96
2023-07-25T09:11:54.457Z,99380.87
2023-07-25T09:14:22.588Z,99379.31
2023-07-25T09:16:50.794Z,99381.17
2023-07-25T09:19:19.097Z,99382.52
2023-07-25T09:21:59.111Z,99379.10
2023-07-25T09:24:37.981Z,99375.83
2023-07-25T09:27:17.833Z,99375.60
2023-07-25T09:29:47.964Z,99372.94
2023-07-25T09:32:27.288Z,99354.66
2023-07-25T09:35:03.546Z,99359.84
2023-07-25T09:37:31.815Z,99373.02
2023-07-25T09:40:00.070Z,99393.92
2023-07-25T09:42:28.388Z,99406.09
2023-07-25T09:44:57.455Z,99398.58
2023-07-25T09:47:27.820Z,99386.44
2023-07-25T09:49:57.507Z,99382.85
2023-07-25T09:52:26.814Z,99403.30
2023-07-25T09:54:55.120Z,99399.73
2023-07-25T09:57:23.429Z,99396.89
2023-07-25T09:59:52.549Z,99403.73
2023-07-25T10:02:21.077Z,99397.09
2023-07-25T10:04:50.479Z,99394.86
2023-07-25T10:07:19.201Z,99403.80
2023-07-25T10:09:48.775Z,99404.08
2023-07-25T10:12:16.927Z,99398.79
2023-07-25T10:14:45.770Z,99405.98
2023-07-25T10:17:14.352Z,99420.13
2023-07-25T10:19:47.873Z,99428.49
2023-07-25T10:22:16.240Z,99439.02
2023-07-25T10:24:44.936Z,99448.20
2023-07-25T10:27:14.027Z,99449.09
2023-07-25T10:29:43.477Z,99449.09
2023-07-25T10:32:16.356Z,99450.42
2023-07-25T10:34:46.324Z,99450.84
2023-07-25T10:37:20.756Z,99455.42
2023-07-25T10:40:14.219Z,99459.21
2023-07-25T10:45:28.526Z,99466.40
2023-07-25T10:47:59.751Z,99466.82
2023-07-25T10:50:49.116Z,99463.20
2023-07-25T10:53:22.827Z,99464.46
2023-07-25T10:56:09.292Z,99462.08
2023-07-25T10:58:58.085Z,99462.60
2023-07-25T11:01:34.199Z,99459.11
2023-07-25T11:04:41.441Z,99460.11
2023-07-25T11:07:12.378Z,99466.98
2023-07-25T11:09:43.252Z,99463.13
2023-07-25T11:12:12.761Z,99473.50
2023-07-25T11:14:43.517Z,99470.13
2023-07-25T11:17:14.996Z,99461.45
2023-07-25T11:19:43.168Z,99462.48
2023-07-25T11:22:12.960Z,99469.64
2023-07-25T11:24:46.048Z,99476.01
2023-07-25T11:27:15.822Z,99485.71
2023-07-25T11:29:44.212Z,99486.30
2023-07-25T11:32:12.438Z,99482.49
2023-07-25T11:34:41.235Z,99487.66
2023-07-25T11:37:13.157Z,99476.72
2023-07-25T11:39:41.308Z,99477.70
2023-07-25T11:42:09.858Z,99474.78
2023-07-25T11:44:38.621Z,99472.45
2023-07-25T11:47:07.068Z,99471.66
2023-07-25T11:49:49.285Z,99474.73
2023-07-25T11:52:20.916Z,99479.26
2023-07-25T11:54:49.408Z,99479.70
2023-07-25T11:57:17.610Z,99480.79
2023-07-25T11:59:45.875Z,99488.38
2023-07-25T12:02:14.087Z,99491.41
2023-07-25T12:04:45.044Z,99487.77
2023-07-25T12:07:14.846Z,99489.85
2023-07-25T12:09:53.365Z,99503.48
2023-07-25T12:12:22.373Z,99503.23
2023-07-25T12:14:59.090Z,99500.76
2023-07-25T12:17:46.117Z,99509.85
2023-07-25T12:20:21.342Z,99509.48
2023-07-25T12:22:49.670Z,99511.29
2023-07-25T12:25:19.335Z,99520.47
2023-07-25T12:27:49.955Z,99526.72
2023-07-25T12:30:18.143Z,99531.79
2023-07-25T12:32:46.328Z,99546.07
2023-07-25T12:35:14.592Z,99554.92
2023-07-25T12:37:42.878Z,99558.45
2023-07-25T12:40:11.534Z,99567.48
2023-07-25T12:42:39.789Z,99569.54
2023-07-25T12:45:11.029Z,99574.41
2023-07-25T12:47:40.053Z,99573.89
2023-07-25T12:50:10.028Z,99577.17
2023-07-25T12:52:38.445Z,99587.04
2023-07-25T12:55:07.346Z,99587.72
2023-07-25T12:57:35.769Z,99585.03
2023-07-25T13:00:08.502Z,99590.77
2023-07-25T13:02:38.280Z,99584.17
2023-07-25T13:05:08.171Z,99579.27
2023-07-25T13:07:36.709Z,99571.16
2023-07-25T13:10:08.163Z,99569.30
2023-07-25T13:12:36.420Z,99565.90
2023-07-25T13:15:05.932Z,99562.10
2023-07-25T13:17:35.199Z,99551.49
2023-07-25T13:20:08.437Z,99550.40
2023-07-25T13:22:37.418Z,99547.52
2023-07-25T13:25:06.333Z,99544.86
2023-07-25T13:27:34.546Z,99545.08
2023-07-25T13:30:02.769Z,99541.98
2023-07-25T13:32:32.021Z,99542.02
2023-07-25T13:35:00.425Z,99536.85
2023-07-25T13:37:28.659Z,99535.75
2023-07-25T13:39:56.769Z,99541.76
2023-07-25T13:42:25.571Z,99538.67
2023-07-25T13:44:53.751Z,99534.33
2023-07-25T13:47:22.184Z,99546.05
2023-07-25T13:49:51.094Z,99544.90
2023-07-25T13:52:19.168Z,99540.68
2023-07-25T13:54:47.360Z,99538.86
2023-07-25T13:57:15.525Z,99545.81
2023-07-25T13:59:43.660Z,99543.25
2023-07-25T14:02:11.858Z,99544.36
2023-07-25T14:04:40.912Z,99554.05
2023-07-25T14:07:09.476Z,99557.80
2023-07-25T14:09:37.629Z,99562.17
2023-07-25T14:12:06.737Z,99567.27
2023-07-25T14:14:35.991Z,99578.94
2023-07-25T14:17:04.737Z,99571.17
2023-07-25T14:19:32.896Z,99567.70
2023-07-25T14:22:01.668Z,99568.59
2023-07-25T14:24:31.136Z,99569.52
2023-07-25T14:26:59.326Z,99573.86
2023-07-25T14:29:27.466Z,99576.34
2023-07-25T14:31:55.833Z,99568.67
2023-07-25T14:34:25.187Z,99563.27
2023-07-25T14:36:53.352Z,99557.88
2023-07-25T14:39:21.405Z,99558.34
2023-07-25T14:41:49.497Z,99564.63
2023-07-25T14:44:17.594Z,99568.15
2023-07-25T14:46:45.801Z,99574.09
2023-07-25T14:49:13.958Z,99582.11
2023-07-25T14:51:42.116Z,99579.10
2023-07-25T14:54:10.229Z,99573.86
2023-07-25T14:56:38.620Z,99558.38
2023-07-25T14:59:07.158Z,99551.14
2023-07-25T15:01:35.341Z,99554.23
2023-07-25T15:04:03.599Z,99563.39
2023-07-25T15:06:32.166Z,99559.29
2023-07-25T15:09:01.584Z,99553.23
2023-07-25T15:11:30.076Z,99548.15
2023-07-25T15:13:58.219Z,99542.97
2023-07-25T15:16:26.381Z,99545.50
2023-07-25T15:18:54.819Z,99547.56
2023-07-25T15:21:22.949Z,99554.48
2023-07-25T15:23:51.072Z,99556.18
2023-07-25T15:26:19.153Z,99548.13
2023-07-25T15:28:47.225Z,99544.60
2023-07-25T15:31:15.541Z,99544.77
2023-07-25T15:33:43.680Z,99548.15
2023-07-25T15:36:11.828Z,99557.24
2023-07-25T15:38:39.941Z,99568.77
2023-07-25T15:41:08.043Z,99568.11
2023-07-25T15:43:36.117Z,99563.27
2023-07-25T15:46:04.269Z,99561.41
2023-07-25T15:48:32.594Z,99563.11
2023-07-25T15:51:00.808Z,99557.22
2023-07-25T15:53:28.990Z,99560.58
2023-07-25T15:55:57.342Z,99562.77
2023-07-25T15:58:25.506Z,99566.20
2023-07-25T16:00:53.698Z,99560.77
2023-07-25T16:03:22.034Z,99561.24
2023-07-25T16:05:50.450Z,99563.70
2023-07-25T16:08:18.863Z,99559.36
2023-07-25T16:10:47.079Z,99558.77
2023-07-25T16:13:15.788Z,99569.81
2023-07-25T16:15:47.460Z,99570.48
2023-07-25T16:18:15.757Z,99567.85
2023-07-25T16:20:44.337Z,99563.30
2023-07-25T16:23:12.528Z,99559.36
2023-07-25T16:25:40.633Z,99563.88
2023-07-25T16:28:08.858Z,99567.42
2023-07-25T16:30:37.710Z,99563.67
2023-07-25T16:33:05.906Z,99563.23
2023-07-25T16:35:34.018Z,99562.86
2023-07-25T16:38:03.382Z,99564.24
2023-07-25T16:40:31.837Z,99559.01
2023-07-25T16:43:00.062Z,99561.21
2023-07-25T16:45:28.167Z,99556.95
2023-07-25T16:47:56.936Z,99556.28
2023-07-25T16:50:25.400Z,99557.65
2023-07-25T16:52:53.669Z,99567.02
2023-07-25T16:55:21.929Z,99556.08
2023-07-25T16:57:50.100Z,99553.48
2023-07-25T17:00:18.588Z,99558.36
2023-07-25T17:02:46.730Z,99562.11
2023-07-25T17:05:14.945Z,99559.88
2023-07-25T17:07:43.336Z,99561.62
2023-07-25T17:10:11.504Z,99568.13
2023-07-25T17:12:39.580Z,99560.09
2023-07-25T17:15:08.269Z,99558.83
2023-07-25T17:17:36.423Z,99565.20
2023-07-25T17:20:05.579Z,99564.31
2023-07-25T17:22:33.825Z,99570.19
2023-07-25T17:25:01.980Z,99566.72
2023-07-25T17:27:30.204Z,99569.06
2023-07-25T17:29:58.420Z,99567.13
2023-07-25T17:32:27.261Z,99566.11
2023-07-25T17:34:55.560Z,99560.63
2023-07-25T17:37:23.697Z,99564.27
2023-07-25T17:39:51.854Z,99568.45
2023-07-25T17:42:20.056Z,99573.95
2023-07-25T17:44:48.205Z,99577.30
2023-07-25T17:47:16.388Z,99573.48
2023-07-25T17:49:44.547Z,99576.04
2023-07-25T17:52:12.746Z,99572.85
2023-07-25T17:54:40.943Z,99572.58
2023-07-25T17:57:09.071Z,99574.77
2023-07-25T17:59:37.245Z,99578.95
2023-07-25T18:02:05.650Z,99580.27
2023-07-25T18:04:34.361Z,99580.16
2023-07-25T18:07:02.465Z,99582.58
2023-07-25T18:09:30.688Z,99589.58
2023-07-25T18:11:58.882Z,99588.09
2023-07-25T18:14:27.115Z,99595.36
2023-07-25T18:16:55.244Z,99601.25
2023-07-25T18:19:23.382Z,99601.60
2023-07-25T18:21:52.095Z,99600.38
2023-07-25T18:24:20.389Z,99605.80
2023-07-25T18:26:49.696Z,99604.29
2023-07-25T18:29:17.914Z,99606.89
2023-07-25T18:31:46.093Z,99608.19
2023-07-25T18:34:14.697Z,99611.63
2023-07-25T18:36:42.831Z,99615.38
2023-07-25T18:39:14.962Z,99618.89
2023-07-25T18:41:43.165Z,99620.73
2023-07-25T18:44:11.278Z,99625.33
2023-07-25T18:46:39.436Z,99625.86
2023-07-25T18:49:07.713Z,99626.20
2023-07-25T18:51:35.900Z,99630.87
2023-07-25T18:54:04.185Z,99632.58
2023-07-25T18:56:33.386Z,99633.91
2023-07-25T18:59:02.715Z,99641.36
2023-07-25T19:01:34.196Z,99642.20
2023-07-25T19:04:02.629Z,99646.06
2023-07-25T19:06:31.268Z,99646.39
2023-07-25T19:08:59.907Z,99653.69
2023-07-25T19:11:28.172Z,99655.04
2023-07-25T19:13:56.484Z,99653.88
2023-07-25T19:16:24.725Z,99655.19
2023-07-25T19:18:52.926Z,99653.52
2023-07-25T19:21:21.006Z,99653.63
2023-07-25T19:23:49.144Z,99653.81
2023-07-25T19:26:17.336Z,99655.89
2023-07-25T19:28:45.612Z,99654.83
2023-07-25T19:31:13.757Z,99651.84
2023-07-25T19:33:41.973Z,99653.89
2023-07-25T19:36:10.136Z,99656.80
2023-07-25T19:38:38.347Z,99660.74
2023-07-25T19:41:15.400Z,99663.82
2023-07-25T19:43:43.765Z,99666.02
2023-07-25T19:46:11.902Z,99669.55
2023-07-25T19:48:40.136Z,99666.58
2023-07-25T19:51:10.525Z,99659.29
2023-07-25T19:53:39.354Z,99659.13
2023-07-25T19:56:12.445Z,99658.82
2023-07-25T19:58:44.818Z,99658.98
2023-07-25T20:01:14.226Z,99662.05
2023-07-25T20:03:42.692Z,99664.48
2023-07-25T20:06:11.041Z,99664.40
2023-07-25T20:08:39.252Z,99661.70
2023-07-25T20:11:08.641Z,99661.34
2023-07-25T20:13:36.984Z,99663.28
2023-07-25T20:16:05.459Z,99661.91
2023-07-25T20:18:33.844Z,99658.09
2023-07-25T20:21:09.885Z,99657.77
2023-07-25T20:23:39.527Z,99658.27
2023-07-25T20:26:07.909Z,99659.83
2023-07-25T20:28:36.042Z,99660.66
2023-07-25T20:37:36.008Z,99659.44
2023-07-25T20:40:06.460Z,99662.82
2023-07-25T20:42:36.043Z,99665.61
2023-07-25T20:45:04.419Z,99662.34
2023-07-25T20:47:34.576Z,99670.62
2023-07-25T20:50:05.356Z,99677.84
2023-07-25T20:52:33.492Z,99679.29
2023-07-25T20:55:01.936Z,99682.57
2023-07-25T20:57:31.213Z,99678.18
2023-07-25T20:59:59.355Z,99679.84
2023-07-25T21:02:27.764Z,99680.08
2023-07-25T21:04:55.915Z,99679.81
2023-07-25T21:07:24.030Z,99679.73
2023-07-25T21:09:52.233Z,99682.89
2023-07-25T21:12:20.403Z,99688.77
2023-07-25T21:14:48.513Z,99688.08
2023-07-25T21:17:16.726Z,99686.39
2023-07-25T21:19:44.834Z,99693.42
2023-07-25T21:22:13.087Z,99699.06
2023-07-25T21:24:41.804Z,99705.95
2023-07-25T21:27:09.905Z,99708.89
2023-07-25T21:29:38.040Z,99709.20
2023-07-25T21:32:06.369Z,99708.48
2023-07-25T21:34:34.535Z,99710.64
2023-07-25T21:37:02.793Z,99708.95
2023-07-25T21:39:30.927Z,99710.15
2023-07-25T21:41:59.099Z,99711.29
2023-07-25T21:44:27.294Z,99710.73
2023-07-25T21:46:55.512Z,99711.16
2023-07-25T21:49:24.147Z,99711.40
2023-07-25T21:51:52.381Z,99713.02
2023-07-25T21:54:20.575Z,99712.81
2023-07-25T21:56:51.017Z,99717.86
2023-07-25T21:59:19.552Z,99717.05
2023-07-25T22:01:47.755Z,99716.52
2023-07-25T22:04:15.947Z,99713.61
2023-07-25T22:06:44.052Z,99711.34
2023-07-25T22:09:12.225Z,99715.29
2023-07-25T22:11:40.425Z,99712.70
2023-07-25T22:14:08.726Z,99715.44
2023-07-25T22:16:37.125Z,99719.85
2023-07-25T22:19:05.490Z,99719.84
2023-07-25T22:21:33.589Z,99719.06
2023-07-25T22:24:01.797Z,99716.95
2023-07-25T22:26:30.288Z,99721.33
2023-07-25T22:28:58.685Z,99719.42
2023-07-25T22:31:26.925Z,99718.95
2023-07-25T22:33:55.094Z,99723.48
2023-07-25T22:36:23.156Z,99721.57
2023-07-25T22:38:51.400Z,99723.85
2023-07-25T22:41:19.832Z,99723.75
2023-07-25T22:43:47.927Z,99725.38
2023-07-25T22:46:16.082Z,99728.70
2023-07-25T22:48:44.317Z,99725.84
2023-07-25T22:51:12.478Z,99727.11
2023-07-25T22:53:40.604Z,99721.61
2023-07-25T22:56:08.694Z,99722.11
2023-07-25T22:58:36.842Z,99728.35
2023-07-25T23:01:05.076Z,99727.80
2023-07-25T23:03:36.256Z,99727.24
2023-07-25T23:06:04.483Z,99730.16
2023-07-25T23:08:32.544Z,99727.39
2023-07-25T23:11:00.677Z,99731.36
2023-07-25T23:13:28.950Z,99734.80
2023-07-25T23:15:57.150Z,99732.39
2023-07-25T23:18:25.288Z,99732.71
2023-07-25T23:20:53.458Z,99733.27
2023-07-25T23:23:21.594Z,99730.55
2023-07-25T23:25:49.710Z,99737.30
2023-07-25T23:28:17.915Z,99731.63
2023-07-25T23:30:46.101Z,99727.48
2023-07-25T23:33:14.318Z,99727.98
2023-07-25T23:35:42.490Z,99726.13
2023-07-25T23:38:10.669Z,99721.52
2023-07-25T23:40:39.023Z,99723.27
2023-07-25T23:43:07.215Z,99722.05
2023-07-25T23:45:35.296Z,99722.55
2023-07-25T23:48:03.684Z,99722.67
2023-07-25T23:50:31.972Z,99723.69
2023-07-25T23:53:00.096Z,99723.36
2023-07-25T23:55:28.382Z,99722.92
2023-07-25T23:57:56.544Z,99726.23
